sensor_id;sensor_type;location;lat;lon;timestamp;P1;durP1;ratioP1;P2;durP2;ratioP2
37321;SDS011;23697;48.684;9.032;2023-08-08T00:02:04;3.10;;;2.90;;
37321;SDS011;23697;48.684;9.032;2023-08-08T00:04:31;3.28;;;3.08;;
37321;SDS011;23697;48.684;9.032;2023-08-08T00:06:58;4.03;;;3.72;;
37321;SDS011;23697;48.684;9.032;2023-08-08T00:09:25;5.15;;;4.85;;
37321;SDS011;23697;48.684;9.032;2023-08-08T00:11:52;5.35;;;4.95;;
37321;SDS011;23697;48.684;9.032;2023-08-08T00:14:19;6.00;;;5.60;;
37321;SDS011;23697;48.684;9.032;2023-08-08T00:16:47;7.15;;;6.72;;
37321;SDS011;23697;48.684;9.032;2023-08-08T00:19:14;7.85;;;7.25;;
37321;SDS011;23697;48.684;9.032;2023-08-08T00:21:41;8.98;;;8.48;;
37321;SDS011;23697;48.684;9.032;2023-08-08T00:24:08;9.20;;;8.68;;
37321;SDS011;23697;48.684;9.032;2023-08-08T00:26:37;11.43;;;10.73;;
37321;SDS011;23697;48.684;9.032;2023-08-08T00:29:06;11.20;;;10.57;;
37321;SDS011;23697;48.684;9.032;2023-08-08T00:31:32;12.50;;;11.80;;
37321;SDS011;23697;48.684;9.032;2023-08-08T00:34:01;15.23;;;14.40;;
37321;SDS011;23697;48.684;9.032;2023-08-08T00:36:27;13.05;;;12.30;;
37321;SDS011;23697;48.684;9.032;2023-08-08T00:38:54;14.45;;;13.65;;
37321;SDS011;23697;48.684;9.032;2023-08-08T00:41:21;19.85;;;18.77;;
37321;SDS011;23697;48.684;9.032;2023-08-08T00:43:48;18.27;;;17.27;;
37321;SDS011;23697;48.684;9.032;2023-08-08T00:46:15;22.42;;;21.13;;
37321;SDS011;23697;48.684;9.032;2023-08-08T00:48:44;22.42;;;21.20;;
37321;SDS011;23697;48.684;9.032;2023-08-08T00:51:13;22.58;;;21.33;;
37321;SDS011;23697;48.684;9.032;2023-08-08T00:53:40;28.52;;;26.98;;
37321;SDS011;23697;48.684;9.032;2023-08-08T00:56:07;29.77;;;28.13;;
37321;SDS011;23697;48.684;9.032;2023-08-08T00:58:34;34.92;;;32.95;;
37321;SDS011;23697;48.684;9.032;2023-08-08T01:01:01;32.85;;;31.02;;
37321;SDS011;23697;48.684;9.032;2023-08-08T01:03:28;32.33;;;30.45;;
37321;SDS011;23697;48.684;9.032;2023-08-08T01:05:57;32.00;;;30.25;;
37321;SDS011;23697;48.684;9.032;2023-08-08T01:08:33;34.00;;;32.15;;
37321;SDS011;23697;48.684;9.032;2023-08-08T01:11:05;35.60;;;33.65;;
37321;SDS011;23697;48.684;9.032;2023-08-08T01:13:32;40.00;;;37.83;;
37321;SDS011;23697;48.684;9.032;2023-08-08T01:15:59;42.97;;;40.63;;
37321;SDS011;23697;48.684;9.032;2023-08-08T01:18:30;37.93;;;35.83;;
37321;SDS011;23697;48.684;9.032;2023-08-08T01:20:59;44.92;;;42.53;;
37321;SDS011;23697;48.684;9.032;2023-08-08T01:23:28;43.55;;;41.15;;
37321;SDS011;23697;48.684;9.032;2023-08-08T01:26:01;56.03;;;52.85;;
37321;SDS011;23697;48.684;9.032;2023-08-08T01:28:29;53.80;;;50.85;;
37321;SDS011;23697;48.684;9.032;2023-08-08T01:30:56;53.35;;;50.40;;
37321;SDS011;23697;48.684;9.032;2023-08-08T01:33:23;59.53;;;56.17;;
37321;SDS011;23697;48.684;9.032;2023-08-08T01:35:50;54.25;;;51.20;;
37321;SDS011;23697;48.684;9.032;2023-08-08T01:38:20;54.23;;;51.23;;
37321;SDS011;23697;48.684;9.032;2023-08-08T01:40:49;70.07;;;66.22;;
37321;SDS011;23697;48.684;9.032;2023-08-08T01:43:18;57.10;;;53.95;;
37321;SDS011;23697;48.684;9.032;2023-08-08T01:45:46;70.07;;;66.20;;
37321;SDS011;23697;48.684;9.032;2023-08-08T01:48:14;55.85;;;52.75;;
37321;SDS011;23697;48.684;9.032;2023-08-08T01:50:41;65.28;;;61.67;;
37321;SDS011;23697;48.684;9.032;2023-08-08T01:53:08;69.32;;;65.47;;
37321;SDS011;23697;48.684;9.032;2023-08-08T01:55:34;75.38;;;71.18;;
37321;SDS011;23697;48.684;9.032;2023-08-08T01:58:01;82.68;;;78.07;;
37321;SDS011;23697;48.684;9.032;2023-08-08T02:00:30;98.53;;;93.20;;
37321;SDS011;23697;48.684;9.032;2023-08-08T02:02:56;97.78;;;92.50;;
37321;SDS011;23697;48.684;9.032;2023-08-08T02:05:24;96.22;;;91.00;;
37321;SDS011;23697;48.684;9.032;2023-08-08T02:07:50;115.50;;;109.03;;
37321;SDS011;23697;48.684;9.032;2023-08-08T02:10:17;106.97;;;101.00;;
37321;SDS011;23697;48.684;9.032;2023-08-08T02:12:44;103.40;;;97.70;;
37321;SDS011;23697;48.684;9.032;2023-08-08T02:15:11;118.75;;;112.13;;
37321;SDS011;23697;48.684;9.032;2023-08-08T02:17:39;109.78;;;103.78;;
37321;SDS011;23697;48.684;9.032;2023-08-08T02:20:06;120.20;;;113.70;;
37321;SDS011;23697;48.684;9.032;2023-08-08T02:22:34;121.07;;;114.63;;
37321;SDS011;23697;48.684;9.032;2023-08-08T02:25:00;138.13;;;130.32;;
37321;SDS011;23697;48.684;9.032;2023-08-08T02:27:27;156.90;;;147.90;;
37321;SDS011;23697;48.684;9.032;2023-08-08T02:29:54;145.52;;;137.50;;
37321;SDS011;23697;48.684;9.032;2023-08-08T02:32:22;161.80;;;152.65;;
37321;SDS011;23697;48.684;9.032;2023-08-08T02:34:50;156.98;;;148.07;;
37321;SDS011;23697;48.684;9.032;2023-08-08T02:37:17;168.52;;;158.85;;
37321;SDS011;23697;48.684;9.032;2023-08-08T02:43:06;149.13;;;140.35;;
37321;SDS011;23697;48.684;9.032;2023-08-08T02:45:34;187.05;;;176.63;;
37321;SDS011;23697;48.684;9.032;2023-08-08T02:48:01;205.85;;;193.63;;
37321;SDS011;23697;48.684;9.032;2023-08-08T02:50:29;245.60;;;231.60;;
37321;SDS011;23697;48.684;9.032;2023-08-08T02:52:56;237.60;;;223.55;;
37321;SDS011;23697;48.684;9.032;2023-08-08T02:55:23;243.52;;;229.43;;
37321;SDS011;23697;48.684;9.032;2023-08-08T02:57:49;266.05;;;250.13;;
37321;SDS011;23697;48.684;9.032;2023-08-08T03:00:16;269.73;;;253.48;;
37321;SDS011;23697;48.684;9.032;2023-08-08T03:02:43;293.88;;;275.90;;
37321;SDS011;23697;48.684;9.032;2023-08-08T03:05:10;287.95;;;270.65;;
37321;SDS011;23697;48.684;9.032;2023-08-08T03:07:38;302.85;;;284.50;;
37321;SDS011;23697;48.684;9.032;2023-08-08T03:10:05;330.63;;;310.27;;
37321;SDS011;23697;48.684;9.032;2023-08-08T03:12:32;363.20;;;341.17;;
37321;SDS011;23697;48.684;9.032;2023-08-08T03:14:59;394.58;;;370.63;;
37321;SDS011;23697;48.684;9.032;2023-08-08T03:17:25;383.23;;;359.20;;
37321;SDS011;23697;48.684;9.032;2023-08-08T03:19:52;444.58;;;416.38;;
37321;SDS011;23697;48.684;9.032;2023-08-08T03:22:19;463.83;;;435.63;;
37321;SDS011;23697;48.684;9.032;2023-08-08T03:24:47;500.70;;;467.50;;
37321;SDS011;23697;48.684;9.032;2023-08-08T03:27:14;516.72;;;482.95;;
37321;SDS011;23697;48.684;9.032;2023-08-08T03:29:41;564.28;;;528.75;;
37321;SDS011;23697;48.684;9.032;2023-08-08T03:32:08;577.30;;;537.78;;
37321;SDS011;23697;48.684;9.032;2023-08-08T03:34:35;638.90;;;595.83;;
37321;SDS011;23697;48.684;9.032;2023-08-08T03:37:01;646.00;;;599.90;;
37321;SDS011;23697;48.684;9.032;2023-08-08T03:39:28;722.00;;;671.60;;
37321;SDS011;23697;48.684;9.032;2023-08-08T03:41:57;723.30;;;671.20;;
37321;SDS011;23697;48.684;9.032;2023-08-08T03:44:23;739.22;;;684.17;;
37321;SDS011;23697;48.684;9.032;2023-08-08T03:46:50;814.22;;;754.17;;
37321;SDS011;23697;48.684;9.032;2023-08-08T03:49:17;771.13;;;714.80;;
37321;SDS011;23697;48.684;9.032;2023-08-08T03:51:44;836.50;;;772.60;;
37321;SDS011;23697;48.684;9.032;2023-08-08T03:54:13;870.28;;;801.55;;
37321;SDS011;23697;48.684;9.032;2023-08-08T03:56:40;877.83;;;806.35;;
37321;SDS011;23697;48.684;9.032;2023-08-08T03:59:08;905.25;;;824.88;;
37321;SDS011;23697;48.684;9.032;2023-08-08T04:01:35;915.33;;;834.05;;
37321;SDS011;23697;48.684;9.032;2023-08-08T04:04:03;954.13;;;874.35;;
37321;SDS011;23697;48.684;9.032;2023-08-08T04:06:30;961.63;;;874.13;;
37321;SDS011;23697;48.684;9.032;2023-08-08T04:08:57;995.72;;;902.85;;
37321;SDS011;23697;48.684;9.032;2023-08-08T04:11:25;1007.25;;;911.83;;
37321;SDS011;23697;48.684;9.032;2023-08-08T04:13:52;959.20;;;873.58;;
37321;SDS011;23697;48.684;9.032;2023-08-08T04:16:20;961.88;;;876.45;;
37321;SDS011;23697;48.684;9.032;2023-08-08T04:18:47;963.38;;;881.30;;
37321;SDS011;23697;48.684;9.032;2023-08-08T04:21:14;932.53;;;853.55;;
37321;SDS011;23697;48.684;9.032;2023-08-08T04:23:41;929.35;;;849.72;;
37321;SDS011;23697;48.684;9.032;2023-08-08T04:26:08;920.63;;;843.97;;
37321;SDS011;23697;48.684;9.032;2023-08-08T04:28:34;894.97;;;818.72;;
37321;SDS011;23697;48.684;9.032;2023-08-08T04:31:01;910.78;;;837.80;;
37321;SDS011;23697;48.684;9.032;2023-08-08T04:33:29;897.83;;;823.28;;
37321;SDS011;23697;48.684;9.032;2023-08-08T04:35:56;895.78;;;820.45;;
37321;SDS011;23697;48.684;9.032;2023-08-08T04:38:24;916.15;;;839.92;;
37321;SDS011;23697;48.684;9.032;2023-08-08T04:40:50;909.08;;;828.88;;
37321;SDS011;23697;48.684;9.032;2023-08-08T04:43:17;949.28;;;863.42;;
37321;SDS011;23697;48.684;9.032;2023-08-08T04:45:44;974.45;;;883.78;;
37321;SDS011;23697;48.684;9.032;2023-08-08T04:48:11;1026.72;;;930.47;;
37321;SDS011;23697;48.684;9.032;2023-08-08T04:50:39;1017.20;;;918.15;;
37321;SDS011;23697;48.684;9.032;2023-08-08T04:53:06;1048.93;;;948.30;;
37321;SDS011;23697;48.684;9.032;2023-08-08T04:55:33;1060.70;;;952.42;;
37321;SDS011;23697;48.684;9.032;2023-08-08T04:57:59;1060.25;;;955.53;;
37321;SDS011;23697;48.684;9.032;2023-08-08T05:00:26;1062.18;;;956.03;;
37321;SDS011;23697;48.684;9.032;2023-08-08T05:02:53;1052.40;;;950.65;;
37321;SDS011;23697;48.684;9.032;2023-08-08T05:05:20;1102.68;;;992.88;;
37321;SDS011;23697;48.684;9.032;2023-08-08T05:07:48;1002.78;;;902.42;;
37321;SDS011;23697;48.684;9.032;2023-08-08T05:10:15;1022.40;;;927.50;;
37321;SDS011;23697;48.684;9.032;2023-08-08T05:12:42;1003.72;;;912.55;;
37321;SDS011;23697;48.684;9.032;2023-08-08T05:15:09;1028.20;;;934.83;;
37321;SDS011;23697;48.684;9.032;2023-08-08T05:17:36;969.10;;;881.05;;
37321;SDS011;23697;48.684;9.032;2023-08-08T05:20:03;984.75;;;897.03;;
37321;SDS011;23697;48.684;9.032;2023-08-08T05:22:31;991.80;;;900.63;;
37321;SDS011;23697;48.684;9.032;2023-08-08T05:24:59;946.92;;;867.15;;
37321;SDS011;23697;48.684;9.032;2023-08-08T05:27:26;938.58;;;856.05;;
37321;SDS011;23697;48.684;9.032;2023-08-08T05:29:52;939.67;;;859.15;;
37321;SDS011;23697;48.684;9.032;2023-08-08T05:32:19;939.67;;;859.88;;
37321;SDS011;23697;48.684;9.032;2023-08-08T05:34:46;915.13;;;839.25;;
37321;SDS011;23697;48.684;9.032;2023-08-08T05:37:14;947.38;;;865.88;;
37321;SDS011;23697;48.684;9.032;2023-08-08T05:39:41;962.03;;;880.95;;
37321;SDS011;23697;48.684;9.032;2023-08-08T05:42:09;925.85;;;843.90;;
37321;SDS011;23697;48.684;9.032;2023-08-08T05:44:35;902.22;;;830.10;;
37321;SDS011;23697;48.684;9.032;2023-08-08T05:47:02;937.33;;;854.85;;
37321;SDS011;23697;48.684;9.032;2023-08-08T05:49:29;947.20;;;866.10;;
37321;SDS011;23697;48.684;9.032;2023-08-08T05:51:56;984.35;;;897.35;;
37321;SDS011;23697;48.684;9.032;2023-08-08T05:54:23;1005.00;;;913.25;;
37321;SDS011;23697;48.684;9.032;2023-08-08T05:56:50;1038.47;;;937.85;;
37321;SDS011;23697;48.684;9.032;2023-08-08T05:59:18;1025.63;;;928.63;;
37321;SDS011;23697;48.684;9.032;2023-08-08T06:01:45;1057.38;;;952.85;;
37321;SDS011;23697;48.684;9.032;2023-08-08T06:04:12;1062.22;;;954.60;;
37321;SDS011;23697;48.684;9.032;2023-08-08T06:06:40;1061.47;;;956.20;;
37321;SDS011;23697;48.684;9.032;2023-08-08T06:09:07;1073.20;;;961.67;;
37321;SDS011;23697;48.684;9.032;2023-08-08T06:11:34;1102.38;;;985.17;;
37321;SDS011;23697;48.684;9.032;2023-08-08T06:14:00;1099.63;;;987.80;;
37321;SDS011;23697;48.684;9.032;2023-08-08T06:16:29;1074.18;;;963.90;;
37321;SDS011;23697;48.684;9.032;2023-08-08T06:18:55;1074.47;;;964.05;;
37321;SDS011;23697;48.684;9.032;2023-08-08T06:21:22;1118.82;;;998.92;;
37321;SDS011;23697;48.684;9.032;2023-08-08T06:23:49;1099.80;;;973.13;;
37321;SDS011;23697;48.684;9.032;2023-08-08T06:26:18;1076.90;;;967.65;;
37321;SDS011;23697;48.684;9.032;2023-08-08T06:28:46;1021.90;;;924.30;;
37321;SDS011;23697;48.684;9.032;2023-08-08T06:31:13;980.65;;;891.65;;
37321;SDS011;23697;48.684;9.032;2023-08-08T06:33:41;905.45;;;828.53;;
37321;SDS011;23697;48.684;9.032;2023-08-08T06:36:08;917.78;;;841.33;;
37321;SDS011;23697;48.684;9.032;2023-08-08T06:38:35;876.08;;;805.08;;
37321;SDS011;23697;48.684;9.032;2023-08-08T06:41:02;847.78;;;778.53;;
37321;SDS011;23697;48.684;9.032;2023-08-08T06:43:29;862.13;;;795.40;;
37321;SDS011;23697;48.684;9.032;2023-08-08T06:45:56;772.90;;;715.65;;
37321;SDS011;23697;48.684;9.032;2023-08-08T06:48:23;646.70;;;601.38;;
37321;SDS011;23697;48.684;9.032;2023-08-08T06:50:52;664.17;;;617.55;;
37321;SDS011;23697;48.684;9.032;2023-08-08T06:53:18;544.72;;;508.45;;
37321;SDS011;23697;48.684;9.032;2023-08-08T06:55:45;450.27;;;420.67;;
37321;SDS011;23697;48.684;9.032;2023-08-08T06:58:12;375.80;;;351.33;;
37321;SDS011;23697;48.684;9.032;2023-08-08T07:00:39;349.17;;;327.17;;
37321;SDS011;23697;48.684;9.032;2023-08-08T07:03:06;288.40;;;270.92;;
37321;SDS011;23697;48.684;9.032;2023-08-08T07:05:32;297.55;;;279.63;;
37321;SDS011;23697;48.684;9.032;2023-08-08T07:08:01;263.92;;;248.18;;
37321;SDS011;23697;48.684;9.032;2023-08-08T07:10:48;120.88;;;114.13;;
37321;SDS011;23697;48.684;9.032;2023-08-08T07:13:15;65.30;;;61.63;;
37321;SDS011;23697;48.684;9.032;2023-08-08T07:15:42;42.17;;;39.78;;
37321;SDS011;23697;48.684;9.032;2023-08-08T07:18:09;31.50;;;29.70;;
37321;SDS011;23697;48.684;9.032;2023-08-08T07:20:35;22.25;;;21.05;;
37321;SDS011;23697;48.684;9.032;2023-08-08T07:23:05;25.23;;;23.83;;
37321;SDS011;23697;48.684;9.032;2023-08-08T07:25:34;20.13;;;18.98;;
37321;SDS011;23697;48.684;9.032;2023-08-08T07:28:02;12.68;;;11.88;;
37321;SDS011;23697;48.684;9.032;2023-08-08T07:30:29;12.02;;;11.32;;
37321;SDS011;23697;48.684;9.032;2023-08-08T07:33:01;9.23;;;8.68;;
37321;SDS011;23697;48.684;9.032;2023-08-08T07:35:32;8.02;;;7.53;;
37321;SDS011;23697;48.684;9.032;2023-08-08T07:37:59;4.57;;;4.28;;
37321;SDS011;23697;48.684;9.032;2023-08-08T07:40:27;4.35;;;4.05;;
37321;SDS011;23697;48.684;9.032;2023-08-08T07:42:54;3.90;;;3.60;;
37321;SDS011;23697;48.684;9.032;2023-08-08T07:45:21;3.08;;;2.88;;
37321;SDS011;23697;48.684;9.032;2023-08-08T07:47:48;2.15;;;2.05;;
37321;SDS011;23697;48.684;9.032;2023-08-08T07:50:15;2.15;;;2.05;;
37321;SDS011;23697;48.684;9.032;2023-08-08T07:52:42;2.10;;;2.00;;
37321;SDS011;23697;48.684;9.032;2023-08-08T07:55:08;1.80;;;1.70;;
37321;SDS011;23697;48.684;9.032;2023-08-08T07:57:37;1.75;;;1.65;;
37321;SDS011;23697;48.684;9.032;2023-08-08T08:00:04;1.27;;;1.27;;
37321;SDS011;23697;48.684;9.032;2023-08-08T08:02:34;1.65;;;1.45;;
37321;SDS011;23697;48.684;9.032;2023-08-08T08:05:01;1.27;;;1.27;;
37321;SDS011;23697;48.684;9.032;2023-08-08T08:07:30;1.30;;;1.30;;
37321;SDS011;23697;48.684;9.032;2023-08-08T08:09:57;1.10;;;1.10;;
37321;SDS011;23697;48.684;9.032;2023-08-08T08:12:27;1.00;;;1.00;;
37321;SDS011;23697;48.684;9.032;2023-08-08T08:14:55;1.00;;;1.00;;
37321;SDS011;23697;48.684;9.032;2023-08-08T08:17:22;1.00;;;1.00;;
37321;SDS011;23697;48.684;9.032;2023-08-08T08:19:49;1.20;;;1.10;;
37321;SDS011;23697;48.684;9.032;2023-08-08T08:22:16;1.20;;;1.10;;
37321;SDS011;23697;48.684;9.032;2023-08-08T08:24:43;0.90;;;0.90;;
37321;SDS011;23697;48.684;9.032;2023-08-08T08:27:11;0.70;;;0.70;;
37321;SDS011;23697;48.684;9.032;2023-08-08T08:29:38;1.10;;;1.00;;
37321;SDS011;23697;48.684;9.032;2023-08-08T08:32:06;0.80;;;0.80;;
37321;SDS011;23697;48.684;9.032;2023-08-08T08:34:33;1.23;;;0.93;;
37321;SDS011;23697;48.684;9.032;2023-08-08T08:36:59;0.90;;;0.90;;
37321;SDS011;23697;48.684;9.032;2023-08-08T08:39:27;0.82;;;0.82;;
37321;SDS011;23697;48.684;9.032;2023-08-08T08:41:54;0.82;;;0.80;;
37321;SDS011;23697;48.684;9.032;2023-08-08T08:44:26;0.80;;;0.80;;
37321;SDS011;23697;48.684;9.032;2023-08-08T08:46:56;1.15;;;1.05;;
37321;SDS011;23697;48.684;9.032;2023-08-08T08:49:26;0.98;;;0.88;;
37321;SDS011;23697;48.684;9.032;2023-08-08T08:51:56;0.80;;;0.80;;
37321;SDS011;23697;48.684;9.032;2023-08-08T08:54:25;1.20;;;1.00;;
37321;SDS011;23697;48.684;9.032;2023-08-08T08:56:53;0.80;;;0.80;;
37321;SDS011;23697;48.684;9.032;2023-08-08T08:59:22;0.85;;;0.85;;
37321;SDS011;23697;48.684;9.032;2023-08-08T09:01:49;0.73;;;0.73;;
37321;SDS011;23697;48.684;9.032;2023-08-08T09:04:16;0.85;;;0.73;;
37321;SDS011;23697;48.684;9.032;2023-08-08T09:09:15;1.38;;;1.25;;
37321;SDS011;23697;48.684;9.032;2023-08-08T09:11:43;0.70;;;0.70;;
37321;SDS011;23697;48.684;9.032;2023-08-08T09:14:16;0.70;;;0.70;;
37321;SDS011;23697;48.684;9.032;2023-08-08T09:16:44;0.88;;;0.88;;
37321;SDS011;23697;48.684;9.032;2023-08-08T09:19:12;1.00;;;0.85;;
37321;SDS011;23697;48.684;9.032;2023-08-08T09:21:38;0.90;;;0.90;;
37321;SDS011;23697;48.684;9.032;2023-08-08T09:24:07;1.27;;;1.10;;
37321;SDS011;23697;48.684;9.032;2023-08-08T09:26:34;4.95;;;0.90;;
37321;SDS011;23697;48.684;9.032;2023-08-08T09:29:01;1.33;;;0.70;;
37321;SDS011;23697;48.684;9.032;2023-08-08T09:31:28;0.50;;;0.50;;
37321;SDS011;23697;48.684;9.032;2023-08-08T09:33:56;3.30;;;0.80;;
37321;SDS011;23697;48.684;9.032;2023-08-08T09:36:24;0.93;;;0.93;;
37321;SDS011;23697;48.684;9.032;2023-08-08T09:38:52;0.50;;;0.50;;
37321;SDS011;23697;48.684;9.032;2023-08-08T09:41:20;0.73;;;0.73;;
37321;SDS011;23697;48.684;9.032;2023-08-08T09:43:48;0.50;;;0.50;;
37321;SDS011;23697;48.684;9.032;2023-08-08T09:46:15;0.70;;;0.70;;
37321;SDS011;23697;48.684;9.032;2023-08-08T09:48:41;0.80;;;0.80;;
37321;SDS011;23697;48.684;9.032;2023-08-08T09:51:08;0.63;;;0.63;;
37321;SDS011;23697;48.684;9.032;2023-08-08T09:53:35;0.63;;;0.63;;
37321;SDS011;23697;48.684;9.032;2023-08-08T09:56:03;0.65;;;0.60;;
37321;SDS011;23697;48.684;9.032;2023-08-08T09:58:32;0.70;;;0.70;;
37321;SDS011;23697;48.684;9.032;2023-08-08T10:00:59;0.80;;;0.80;;
37321;SDS011;23697;48.684;9.032;2023-08-08T10:03:26;0.77;;;0.77;;
37321;SDS011;23697;48.684;9.032;2023-08-08T10:05:54;0.68;;;0.68;;
37321;SDS011;23697;48.684;9.032;2023-08-08T10:08:21;0.95;;;0.95;;
37321;SDS011;23697;48.684;9.032;2023-08-08T10:10:48;0.82;;;0.82;;
37321;SDS011;23697;48.684;9.032;2023-08-08T10:13:20;0.68;;;0.68;;
37321;SDS011;23697;48.684;9.032;2023-08-08T10:15:48;0.70;;;0.70;;
37321;SDS011;23697;48.684;9.032;2023-08-08T10:18:16;0.82;;;0.82;;
37321;SDS011;23697;48.684;9.032;2023-08-08T10:20:44;0.65;;;0.65;;
37321;SDS011;23697;48.684;9.032;2023-08-08T10:23:14;0.75;;;0.75;;
37321;SDS011;23697;48.684;9.032;2023-08-08T10:25:43;0.65;;;0.65;;
37321;SDS011;23697;48.684;9.032;2023-08-08T10:28:11;0.60;;;0.60;;
37321;SDS011;23697;48.684;9.032;2023-08-08T10:30:43;0.63;;;0.63;;
37321;SDS011;23697;48.684;9.032;2023-08-08T10:33:21;1.08;;;0.80;;
37321;SDS011;23697;48.684;9.032;2023-08-08T10:35:56;3.03;;;0.75;;
37321;SDS011;23697;48.684;9.032;2023-08-08T10:38:25;0.52;;;0.52;;
37321;SDS011;23697;48.684;9.032;2023-08-08T10:40:56;1.52;;;0.80;;
37321;SDS011;23697;48.684;9.032;2023-08-08T10:43:26;0.65;;;0.65;;
37321;SDS011;23697;48.684;9.032;2023-08-08T10:45:56;0.52;;;0.52;;
37321;SDS011;23697;48.684;9.032;2023-08-08T10:48:26;0.63;;;0.63;;
37321;SDS011;23697;48.684;9.032;2023-08-08T10:50:54;0.60;;;0.60;;
37321;SDS011;23697;48.684;9.032;2023-08-08T10:53:24;0.93;;;0.77;;
37321;SDS011;23697;48.684;9.032;2023-08-08T10:55:57;0.60;;;0.60;;
37321;SDS011;23697;48.684;9.032;2023-08-08T10:58:34;1.05;;;0.80;;
37321;SDS011;23697;48.684;9.032;2023-08-08T11:01:02;0.60;;;0.60;;
37321;SDS011;23697;48.684;9.032;2023-08-08T11:03:33;1.10;;;0.65;;
37321;SDS011;23697;48.684;9.032;2023-08-08T11:06:01;1.60;;;0.70;;
37321;SDS011;23697;48.684;9.032;2023-08-08T11:08:29;0.60;;;0.60;;
37321;SDS011;23697;48.684;9.032;2023-08-08T11:10:57;1.52;;;0.73;;
37321;SDS011;23697;48.684;9.032;2023-08-08T11:13:24;0.45;;;0.45;;
37321;SDS011;23697;48.684;9.032;2023-08-08T11:15:51;1.73;;;1.10;;
37321;SDS011;23697;48.684;9.032;2023-08-08T11:18:18;0.73;;;0.70;;
37321;SDS011;23697;48.684;9.032;2023-08-08T11:20:47;2.17;;;1.15;;
37321;SDS011;23697;48.684;9.032;2023-08-08T11:23:14;0.52;;;0.52;;
37321;SDS011;23697;48.684;9.032;2023-08-08T11:25:44;0.60;;;0.40;;
37321;SDS011;23697;48.684;9.032;2023-08-08T11:28:11;0.50;;;0.50;;
37321;SDS011;23697;48.684;9.032;2023-08-08T11:30:40;0.63;;;0.63;;
37321;SDS011;23697;48.684;9.032;2023-08-08T11:33:08;0.95;;;0.63;;
37321;SDS011;23697;48.684;9.032;2023-08-08T11:35:35;1.17;;;0.77;;
37321;SDS011;23697;48.684;9.032;2023-08-08T11:38:04;0.50;;;0.50;;
37321;SDS011;23697;48.684;9.032;2023-08-08T11:40:31;0.57;;;0.55;;
37321;SDS011;23697;48.684;9.032;2023-08-08T11:42:59;2.15;;;0.70;;
37321;SDS011;23697;48.684;9.032;2023-08-08T11:45:26;0.60;;;0.60;;
37321;SDS011;23697;48.684;9.032;2023-08-08T11:47:54;0.68;;;0.68;;
37321;SDS011;23697;48.684;9.032;2023-08-08T11:50:23;0.85;;;0.70;;
37321;SDS011;23697;48.684;9.032;2023-08-08T11:52:53;3.40;;;1.43;;
37321;SDS011;23697;48.684;9.032;2023-08-08T11:55:26;1.17;;;0.82;;
37321;SDS011;23697;48.684;9.032;2023-08-08T11:57:56;0.70;;;0.70;;
37321;SDS011;23697;48.684;9.032;2023-08-08T12:03:18;1.35;;;0.80;;
37321;SDS011;23697;48.684;9.032;2023-08-08T12:09:02;0.75;;;0.63;;
37321;SDS011;23697;48.684;9.032;2023-08-08T12:15:23;0.50;;;0.50;;
37321;SDS011;23697;48.684;9.032;2023-08-08T12:18:44;0.82;;;0.60;;
37321;SDS011;23697;48.684;9.032;2023-08-08T12:24:59;1.25;;;0.50;;
37321;SDS011;23697;48.684;9.032;2023-08-08T12:28:22;0.65;;;0.65;;
37321;SDS011;23697;48.684;9.032;2023-08-08T12:37:16;0.98;;;0.85;;
37321;SDS011;23697;48.684;9.032;2023-08-08T12:40:00;0.90;;;0.73;;
37321;SDS011;23697;48.684;9.032;2023-08-08T12:42:58;0.63;;;0.63;;
37321;SDS011;23697;48.684;9.032;2023-08-08T12:45:37;1.23;;;0.70;;
37321;SDS011;23697;48.684;9.032;2023-08-08T12:51:19;0.93;;;0.60;;
37321;SDS011;23697;48.684;9.032;2023-08-08T12:54:11;1.08;;;0.70;;
37321;SDS011;23697;48.684;9.032;2023-08-08T12:56:38;0.60;;;0.60;;
37321;SDS011;23697;48.684;9.032;2023-08-08T12:59:04;0.75;;;0.75;;
37321;SDS011;23697;48.684;9.032;2023-08-08T13:01:31;1.50;;;0.82;;
37321;SDS011;23697;48.684;9.032;2023-08-08T13:03:58;0.82;;;0.73;;
37321;SDS011;23697;48.684;9.032;2023-08-08T13:06:26;0.70;;;0.70;;
37321;SDS011;23697;48.684;9.032;2023-08-08T13:09:07;1.73;;;0.80;;
37321;SDS011;23697;48.684;9.032;2023-08-08T13:11:34;0.88;;;0.82;;
37321;SDS011;23697;48.684;9.032;2023-08-08T13:14:08;0.50;;;0.50;;
37321;SDS011;23697;48.684;9.032;2023-08-08T13:16:38;1.65;;;0.93;;
37321;SDS011;23697;48.684;9.032;2023-08-08T13:19:08;0.50;;;0.50;;
37321;SDS011;23697;48.684;9.032;2023-08-08T13:21:39;0.75;;;0.75;;
37321;SDS011;23697;48.684;9.032;2023-08-08T13:24:29;0.45;;;0.45;;
37321;SDS011;23697;48.684;9.032;2023-08-08T13:26:57;1.48;;;0.90;;
37321;SDS011;23697;48.684;9.032;2023-08-08T13:29:27;1.30;;;0.88;;
37321;SDS011;23697;48.684;9.032;2023-08-08T13:31:55;1.20;;;0.70;;
37321;SDS011;23697;48.684;9.032;2023-08-08T13:34:23;0.60;;;0.60;;
37321;SDS011;23697;48.684;9.032;2023-08-08T13:36:51;0.47;;;0.47;;
37321;SDS011;23697;48.684;9.032;2023-08-08T13:39:18;1.23;;;0.68;;
37321;SDS011;23697;48.684;9.032;2023-08-08T13:41:45;1.95;;;1.00;;
37321;SDS011;23697;48.684;9.032;2023-08-08T13:44:12;0.80;;;0.75;;
37321;SDS011;23697;48.684;9.032;2023-08-08T13:46:42;0.60;;;0.60;;
37321;SDS011;23697;48.684;9.032;2023-08-08T13:49:09;1.25;;;0.60;;
37321;SDS011;23697;48.684;9.032;2023-08-08T13:51:53;0.60;;;0.60;;
37321;SDS011;23697;48.684;9.032;2023-08-08T13:54:20;0.80;;;0.80;;
37321;SDS011;23697;48.684;9.032;2023-08-08T13:56:47;0.68;;;0.68;;
37321;SDS011;23697;48.684;9.032;2023-08-08T13:59:14;1.50;;;0.93;;
37321;SDS011;23697;48.684;9.032;2023-08-08T14:01:41;0.50;;;0.50;;
37321;SDS011;23697;48.684;9.032;2023-08-08T14:04:08;0.65;;;0.65;;
37321;SDS011;23697;48.684;9.032;2023-08-08T14:06:36;0.70;;;0.70;;
37321;SDS011;23697;48.684;9.032;2023-08-08T14:09:04;0.60;;;0.60;;
37321;SDS011;23697;48.684;9.032;2023-08-08T14:11:37;1.67;;;0.77;;
37321;SDS011;23697;48.684;9.032;2023-08-08T14:14:04;0.50;;;0.50;;
37321;SDS011;23697;48.684;9.032;2023-08-08T14:16:31;0.70;;;0.70;;
37321;SDS011;23697;48.684;9.032;2023-08-08T14:18:58;0.70;;;0.70;;
37321;SDS011;23697;48.684;9.032;2023-08-08T14:21:25;1.45;;;1.02;;
37321;SDS011;23697;48.684;9.032;2023-08-08T14:23:58;0.93;;;0.70;;
37321;SDS011;23697;48.684;9.032;2023-08-08T14:26:32;0.70;;;0.70;;
37321;SDS011;23697;48.684;9.032;2023-08-08T14:28:59;0.50;;;0.50;;
37321;SDS011;23697;48.684;9.032;2023-08-08T14:31:26;1.42;;;0.68;;
37321;SDS011;23697;48.684;9.032;2023-08-08T14:33:52;0.73;;;0.60;;
37321;SDS011;23697;48.684;9.032;2023-08-08T14:36:19;0.60;;;0.60;;
37321;SDS011;23697;48.684;9.032;2023-08-08T14:38:48;0.68;;;0.68;;
37321;SDS011;23697;48.684;9.032;2023-08-08T14:41:17;0.70;;;0.70;;
37321;SDS011;23697;48.684;9.032;2023-08-08T14:43:46;0.63;;;0.63;;
37321;SDS011;23697;48.684;9.032;2023-08-08T14:46:13;0.50;;;0.50;;
37321;SDS011;23697;48.684;9.032;2023-08-08T14:48:40;0.60;;;0.60;;
37321;SDS011;23697;48.684;9.032;2023-08-08T14:51:22;0.55;;;0.55;;
37321;SDS011;23697;48.684;9.032;2023-08-08T14:53:49;1.38;;;0.60;;
37321;SDS011;23697;48.684;9.032;2023-08-08T14:56:18;0.90;;;0.90;;
37321;SDS011;23697;48.684;9.032;2023-08-08T14:58:44;0.63;;;0.60;;
37321;SDS011;23697;48.684;9.032;2023-08-08T15:01:11;2.20;;;0.80;;
37321;SDS011;23697;48.684;9.032;2023-08-08T15:03:38;0.95;;;0.73;;